Flight Track Log - Related Links

Times and Time Zones

All times are in EDT time to prevent confusion due to time zone crossing. See the AAL1398 flight status page for this flight to view local times or setup timezone preferences in your user account.

Time Position Orientation Groundspeed Altitude Reporting Facility
EDT Latitude Longitude Course Direction KTS MPH feet Rate Location/Type
Wed 01:52:00 PM 18.6067 -69.7853 328° Northwest  Level FlightAware Approximate
Wed 01:53:00 PM 18.6952 -69.8436 328° Northwest  Level FlightAware Approximate
Wed 01:54:00 PM 18.7836 -69.9020 328° Northwest  Level FlightAware Approximate
Wed 01:55:00 PM 18.8721 -69.9604 328° Northwest  Level FlightAware Approximate
Wed 01:56:00 PM 18.9605 -70.0188 328° Northwest  Level FlightAware Approximate
Wed 01:57:00 PM 19.0489 -70.0774 328° Northwest  Level FlightAware Approximate
Wed 01:58:00 PM 19.1373 -70.1360 328° Northwest  Level FlightAware Approximate
Wed 01:58:31 PM 18.6394 -70.1475 327° Northwest 435 501 20,700  Level Miami Center
Wed 01:59:00 PM 19.2124 -70.1925 325° Northwest  Level FlightAware Approximate
Wed 01:59:31 PM 18.7372 -70.1953 335° Northwest 412 474 22,200  Level Miami Center
Wed 02:00:00 PM 19.2975 -70.2564 325° Northwest  Level FlightAware Approximate
Wed 02:00:31 PM 18.8308 -70.2458 333° Northwest 395 455 24,300  Level Miami Center
Wed 02:01:00 PM 19.3842 -70.3178 327° Northwest  Level FlightAware Approximate
Wed 02:01:31 PM 18.9308 -70.2981 334° Northwest 390 449 25,900  Level Miami Center
Wed 02:02:00 PM 19.4720 -70.3774 327° Northwest  Level FlightAware Approximate
Wed 02:02:31 PM 19.0328 -70.3525 333° Northwest 395 455 27,900  Level Miami Center
Wed 02:03:00 PM 19.5598 -70.4371 327° Northwest  Level FlightAware Approximate
Wed 02:03:31 PM 19.1331 -70.4114 331° Northwest 406 467 29,900  Level Miami Center
Wed 02:04:31 PM 19.2333 -70.4681 332° Northwest 406 467 30,000 50 Climbing Miami Center
Wed 02:05:31 PM 19.3331 -70.5206 334° Northwest 406 467 30,000  Level Miami Center
Wed 02:06:31 PM 19.4333 -70.5756 333° Northwest 406 467 30,000  Level Miami Center
Wed 02:07:31 PM 19.5336 -70.6369 330° Northwest 411 473 30,000  Level Miami Center
Wed 02:08:31 PM 19.6336 -70.6939 332° Northwest 411 473 30,000  Level Miami Center
Wed 02:09:31 PM 19.7358 -70.7489 333° Northwest 411 473 30,000  Level Miami Center
Wed 02:10:31 PM 19.8358 -70.8039 333° Northwest 411 473 30,000  Level Miami Center
Wed 02:11:31 PM 19.9381 -70.8592 333° Northwest 411 473 30,000  Level Miami Center
Wed 02:12:31 PM 20.0378 -70.9100 334° Northwest 406 467 30,000  Level Miami Center
Wed 02:13:31 PM 20.1378 -70.9653 333° Northwest 406 467 30,000  Level Miami Center
Wed 02:14:31 PM 20.2397 -71.0183 334° Northwest 406 467 30,000  Level Miami Center
Wed 02:15:31 PM 20.3378 -71.0761 331° Northwest 401 461 30,000  Level Miami Center
Wed 02:16:31 PM 20.4297 -71.1386 328° Northwest 401 461 30,000  Level Miami Center
Wed 02:17:31 PM 20.4917 -71.2333 305° West 386 444 30,000  Level Miami Center
Wed 02:18:31 PM 20.5514 -71.3303 303° West 392 451 30,000  Level Miami Center
Wed 02:19:31 PM 20.6111 -71.4256 304° West 392 451 30,000  Level Miami Center
Wed 02:20:31 PM 20.6708 -71.5250 303° West 392 451 30,000  Level Miami Center
Wed 02:21:31 PM 20.7303 -71.6203 304° West 392 451 30,000  Level Miami Center
Wed 02:22:31 PM 20.7919 -71.7175 304° West 392 451 30,000  Level Miami Center
Wed 02:23:31 PM 20.8514 -71.8131 304° West 392 451 30,000  Level Miami Center
Wed 02:24:31 PM 20.9131 -71.9106 304° West 392 451 30,000  Level Miami Center
Wed 02:25:31 PM 20.9725 -72.0083 303° West 397 457 30,000  Level Miami Center
Wed 02:26:31 PM 21.0339 -72.1083 303° West 397 457 30,000  Level Miami Center
Wed 02:27:31 PM 21.0867 -72.1953 303° West 397 457 30,000  Level Miami Center
Wed 02:28:31 PM 21.1481 -72.2933 304° West 397 457 30,000  Level Miami Center
Wed 02:29:31 PM 21.2072 -72.3914 303° West 397 457 30,000  Level Miami Center
Wed 02:30:31 PM 21.2664 -72.4897 303° West 397 457 30,000  Level Miami Center
Wed 02:31:31 PM 21.3256 -72.5881 303° West 397 457 30,000  Level Miami Center
Wed 02:32:31 PM 21.3867 -72.6864 304° West 397 457 30,000  Level Miami Center
Wed 02:33:31 PM 21.4478 -72.7847 304° West 397 457 30,000  Level Miami Center
Wed 02:34:31 PM 21.5067 -72.8811 303° West 397 457 30,000  Level Miami Center
Wed 02:35:31 PM 21.5656 -72.9819 302° West 397 457 30,000  Level Miami Center
Wed 02:36:31 PM 21.6264 -73.0806 304° West 397 457 30,000  Level Miami Center
Wed 02:37:31 PM 21.6853 -73.1794 303° West 397 457 30,000  Level Miami Center
Wed 02:38:31 PM 21.7419 -73.2783 302° West 397 457 30,000  Level Miami Center
Wed 02:39:31 PM 21.7983 -73.3797 301° West 397 457 30,000  Level Miami Center
Wed 02:40:31 PM 21.8592 -73.4786 304° West 397 457 30,000  Level Miami Center
Wed 02:41:31 PM 21.9239 -73.5778 305° West 397 457 30,000  Level Miami Center
Wed 02:42:31 PM 21.9803 -73.6772 301° West 402 463 30,000  Level Miami Center
Wed 02:43:31 PM 22.0433 -73.7922 301° West 402 463 30,000  Level Miami Center
Wed 02:44:31 PM 22.1036 -73.8869 304° West 397 457 30,000  Level Miami Center
Wed 02:45:31 PM 22.1619 -73.9889 302° West 397 457 30,000  Level Miami Center
Wed 02:46:31 PM 22.2200 -74.0861 303° West 397 457 30,000  Level Miami Center
Wed 02:47:31 PM 22.2806 -74.1883 303° West 397 457 30,000  Level Miami Center
Wed 02:48:31 PM 22.3386 -74.2858 303° West 397 457 30,000  Level Miami Center
Wed 02:49:31 PM 22.3986 -74.3881 302° West 397 457 30,000  Level Miami Center
Wed 02:50:31 PM 22.4567 -74.4881 302° West 397 457 30,000  Level Miami Center
Wed 02:51:31 PM 22.5167 -74.5881 303° West 397 457 30,000  Level Miami Center
Wed 02:52:31 PM 22.5744 -74.6861 303° West 397 457 30,000  Level Miami Center
Wed 02:53:31 PM 22.6300 -74.7750 304° West 397 457 30,000  Level Miami Center
Wed 02:54:31 PM 22.6881 -74.8778 301° West 397 457 30,000  Level Miami Center
Wed 02:55:31 PM 22.7456 -74.9781 302° West 397 457 30,000  Level Miami Center
Wed 02:56:31 PM 22.8075 -75.0764 304° West 397 457 30,000  Level Miami Center
Wed 02:57:31 PM 22.8628 -75.1772 301° West 397 457 30,000  Level Miami Center
Wed 02:58:31 PM 22.9203 -75.2800 301° West 397 457 30,000  Level Miami Center
Wed 02:59:31 PM 22.9778 -75.3786 302° West 397 457 30,000  Level Miami Center
Wed 03:00:31 PM 23.0372 -75.4819 302° West 397 457 30,000  Level Miami Center
Wed 03:01:31 PM 23.0947 -75.5850 301° West 397 457 30,000  Level Miami Center
Wed 03:02:31 PM 23.1519 -75.6839 302° West 397 457 30,000  Level Miami Center
Wed 03:03:31 PM 23.2092 -75.7875 301° West 397 457 30,000  Level Miami Center
Wed 03:04:31 PM 23.2683 -75.8908 302° West 397 457 30,000  Level Miami Center
Wed 03:05:31 PM 23.3275 -75.9944 302° West 397 457 30,000  Level Miami Center
Wed 03:06:31 PM 23.3886 -76.0939 304° West 397 457 30,000  Level Miami Center
Wed 03:07:31 PM 23.4517 -76.2019 302° West 397 457 30,000  Level Miami Center
Wed 03:08:31 PM 23.5108 -76.3061 302° West 397 457 30,000  Level Miami Center
Wed 03:09:31 PM 23.5675 -76.4078 301° West 397 457 30,000  Level Miami Center
Wed 03:10:31 PM 23.6242 -76.5072 302° West 397 457 30,000  Level Miami Center
Wed 03:11:31 PM 23.6808 -76.6094 301° West 397 457 30,000  Level Miami Center
Wed 03:12:31 PM 23.7394 -76.7092 303° West 397 457 30,000  Level Miami Center
Wed 03:13:31 PM 23.7939 -76.8111 300° West 397 457 30,000  Level Miami Center
Wed 03:14:31 PM 23.8503 -76.9133 301° West 397 457 30,000  Level Miami Center
Wed 03:15:31 PM 23.9025 -76.9975 304° West 389 448 30,000  Level Miami Center
Wed 03:16:31 PM 23.9567 -77.1044 299° West 389 448 30,000  Level Miami Center
Wed 03:17:31 PM 24.0150 -77.2025 303° West 383 441 30,000  Level Miami Center
Wed 03:18:31 PM 24.0692 -77.3050 300° West 383 441 30,000  Level Miami Center
Wed 03:19:31 PM 24.1272 -77.4075 302° West 383 441 30,000  Level Miami Center
Wed 03:20:31 PM 24.1811 -77.5058 301° West 383 441 30,000  Level Miami Center
Wed 03:21:31 PM 24.2372 -77.6064 301° West 383 441 30,000  Level Miami Center
Wed 03:22:31 PM 24.2911 -77.7069 300° West 383 441 30,000  Level Miami Center
Wed 03:23:31 PM 24.3489 -77.8056 303° West 383 441 30,000  Level Miami Center
Wed 03:24:31 PM 24.4025 -77.9064 300° West 383 441 30,000  Level Miami Center
Wed 03:25:31 PM 24.4583 -78.0094 301° West 383 441 30,000  Level Miami Center
Wed 03:26:31 PM 24.5181 -78.1197 301° West 383 441 30,000  Level Miami Center
Wed 03:27:31 PM 24.5736 -78.2183 302° West 383 441 30,000  Level Miami Center
Wed 03:28:31 PM 24.6292 -78.3172 302° West 383 441 30,000  Level Miami Center
Wed 03:29:31 PM 24.6825 -78.4164 301° West 383 441 30,000  Level Miami Center
Wed 03:30:31 PM 24.7336 -78.5131 300° West 378 435 30,000  Level Miami Center
Wed 03:31:31 PM 24.7908 -78.6144 302° West 385 443 30,000  Level Miami Center
Wed 03:32:31 PM 24.8461 -78.7139 302° West 385 443 30,000  Level Miami Center
Wed 03:33:31 PM 24.8950 -78.8108 299° West 380 437 30,000  Level Miami Center
Wed 03:34:31 PM 24.9481 -78.9103 300° West 385 443 30,000 -350 Level Miami Center
Wed 03:35:31 PM 25.0072 -79.0075 304° West 380 437 29,300 -1,550 Descending Miami Center
Wed 03:36:31 PM 25.0622 -79.1094 301° West 380 437 26,900 -2,850 Descending Miami Center
Wed 03:37:31 PM 25.1169 -79.2181 299° West 392 451 23,600 -3,100 Descending Miami Center
Wed 03:38:31 PM 25.1797 -79.3297 302° West 413 475 20,700 -2,826 Descending Miami Center
Wed 03:39:32 PM 25.2383 -79.4456 299° West 425 489 17,900 -2,755 Descending Miami Center
Wed 03:40:09 PM 25.2747 -79.5131 301° West 415 478 16,200 -2,542 Descending Miami Center
Wed 03:40:31 PM 25.2972 -79.5503 304° West 424 488 15,400 -1,672 Descending Miami Center
Wed 03:41:10 PM 25.3314 -79.6156 300° West 385 443 14,500 -1,400 Descending Miami Center
Wed 03:41:31 PM 25.3517 -79.6528 301° West 406 467 14,000 -1,791 Descending Miami Center
Wed 03:42:17 PM 25.3878 -79.7247 299° West 358 412 12,500 -1,901 Descending Miami Center
Wed 03:43:12 PM 25.4447 -79.8136 305° West 370 426 10,800 -1,703 Descending Miami Center
Wed 03:43:31 PM 25.4631 -79.8369 311° West 368 423 10,400 -1,475 Descending Miami Center
Wed 03:44:13 PM 25.5033 -79.9025 304° West 367 422 9,300 -1,500 Descending Miami Center
Wed 03:44:31 PM 25.5217 -79.9258 311° West 363 418 8,900 -1,279 Descending Miami Center
Wed 03:45:14 PM 25.5603 -79.9869 305° West 339 390 8,000 -1,000 Descending Miami Center
Wed 03:45:31 PM 25.5786 -80.0081 314° West 351 404 7,900  Descending Miami Center
Wed 03:46:27 PM 25.6208 -80.0806 303° West 281 323 8,000 54 Climbing Miami Center
Wed 03:47:22 PM 25.6592 -80.1461 303° West 276 318 8,000 -51 Level Miami Center
Wed 03:48:24 PM 25.6803 -80.2181 288° West 233 268 7,900 -780 Descending Miami Center
Wed 03:49:25 PM 25.6975 -80.2878 285° West 231 266 6,400 -1,688 Descending Miami Center
Wed 03:50:32 PM 25.7039 -80.3733 275° West 234 269 4,300 -1,594 Descending Miami Center
Wed 03:51:33 PM 25.7044 -80.4425 271° West 228 262 3,000 -667 Descending Miami Center
Wed 03:52:29 PM 25.7347 -80.4825 310° West 213 245 3,000 -295 Level Miami Center
Wed 03:53:35 PM 25.7772 -80.4514 33° Northeast 183 211 2,400 -703 Descending Miami Center
Wed 03:54:37 PM 25.7806 -80.4008 86° East 160 184 1,500 -780 Descending Miami Center
Wed 03:55:38 PM 25.7817 -80.3569 88° East 122 140 800 -724 Descending Miami Center
Wed 03:56:33 PM 25.7844 -80.3203 85° East 121 139 100 -764 Descending Miami Center
Wed 03:58:00 PM 25.7833 -80.2833 77° East  Level FlightAware Approximate
Wed 04:05:00 PM 25.7954 -80.2901 77° East  Level Estimated

Login

Don't have an account? Register now (free) for customized features, flight alerts, and more!